createdAt,value
2023-04-23T00:02:16.833Z,17.48
2023-04-23T00:04:52.928Z,17.42
2023-04-23T00:07:21.674Z,17.32
2023-04-23T00:09:50.215Z,17.38
2023-04-23T00:12:17.597Z,17.32
2023-04-23T00:14:44.495Z,17.25
2023-04-23T00:17:11.549Z,17.19
2023-04-23T00:19:38.292Z,17.15
2023-04-23T00:22:06.169Z,17.17
2023-04-23T00:24:36.132Z,17.13
2023-04-23T00:27:03.359Z,17.14
2023-04-23T00:29:30.232Z,17.05
2023-04-23T00:31:57.595Z,17.01
2023-04-23T00:34:24.459Z,17.01
2023-04-23T00:36:51.524Z,16.96
2023-04-23T00:39:18.273Z,16.97
2023-04-23T00:41:45.431Z,16.92
2023-04-23T00:44:13.213Z,16.83
2023-04-23T00:46:40.413Z,16.85
2023-04-23T00:49:07.172Z,16.84
2023-04-23T00:51:34.400Z,16.73
2023-04-23T00:54:01.145Z,16.72
2023-04-23T00:56:28.416Z,16.67
2023-04-23T00:58:55.301Z,16.62
2023-04-23T01:01:22.422Z,16.60
2023-04-23T01:03:49.548Z,16.63
2023-04-23T01:06:16.906Z,16.59
2023-04-23T01:08:43.776Z,16.58
2023-04-23T01:11:11.390Z,16.54
2023-04-23T01:13:38.107Z,16.46
2023-04-23T01:16:05.454Z,16.42
2023-04-23T01:18:32.490Z,16.40
2023-04-23T01:20:59.663Z,16.44
2023-04-23T01:23:27.258Z,16.42
2023-04-23T01:25:54.682Z,16.37
2023-04-23T01:28:21.599Z,16.32
2023-04-23T01:30:48.661Z,16.28
2023-04-23T01:33:15.520Z,16.26
2023-04-23T01:35:42.537Z,16.23
2023-04-23T01:38:10.550Z,16.19
2023-04-23T01:40:38.026Z,16.13
2023-04-23T01:43:06.333Z,16.07
2023-04-23T01:45:33.430Z,16.07
2023-04-23T01:48:00.791Z,15.97
2023-04-23T01:50:29.927Z,15.96
2023-04-23T01:52:56.805Z,15.95
2023-04-23T01:55:23.976Z,15.87
2023-04-23T01:57:51.655Z,15.92
2023-04-23T02:00:18.967Z,15.90
2023-04-23T02:02:46.097Z,15.85
2023-04-23T02:05:18.674Z,15.81
2023-04-23T02:07:46.465Z,15.79
2023-04-23T02:10:13.597Z,15.82
2023-04-23T02:12:40.460Z,15.78
2023-04-23T02:15:08.035Z,15.78
2023-04-23T02:17:35.465Z,15.69
2023-04-23T02:20:02.860Z,15.67
2023-04-23T02:22:29.844Z,15.71
2023-04-23T02:24:56.936Z,15.66
2023-04-23T02:27:23.859Z,15.63
2023-04-23T02:29:51.851Z,15.68
2023-04-23T02:32:18.634Z,15.63
2023-04-23T02:34:46.363Z,15.62
2023-04-23T02:37:13.103Z,15.52
2023-04-23T02:39:40.227Z,15.56
2023-04-23T02:42:07.266Z,15.57
2023-04-23T02:44:34.385Z,15.52
2023-04-23T02:47:01.339Z,15.55
2023-04-23T02:49:28.473Z,15.56
2023-04-23T02:51:55.314Z,15.51
2023-04-23T02:54:22.350Z,15.50
2023-04-23T02:56:49.153Z,15.45
2023-04-23T02:59:16.267Z,15.42
2023-04-23T03:01:43.101Z,15.43
2023-04-23T03:04:10.412Z,15.36
2023-04-23T03:06:37.451Z,15.35
2023-04-23T03:09:05.002Z,15.30
2023-04-23T03:11:31.815Z,15.28
2023-04-23T03:13:58.878Z,15.31
2023-04-23T03:16:28.213Z,15.29
2023-04-23T03:18:55.704Z,15.28
2023-04-23T03:21:22.648Z,15.25
2023-04-23T03:23:49.769Z,15.19
2023-04-23T03:26:16.536Z,15.14
2023-04-23T03:28:43.592Z,15.18
2023-04-23T03:31:10.396Z,15.18
2023-04-23T03:33:37.514Z,15.13
2023-04-23T03:36:04.661Z,15.12
2023-04-23T03:38:31.804Z,15.09
2023-04-23T03:40:58.569Z,15.08
2023-04-23T03:43:25.725Z,15.04
2023-04-23T03:45:52.481Z,15.03
2023-04-23T03:48:20.826Z,14.98
2023-04-23T03:50:47.667Z,14.95
2023-04-23T03:53:14.727Z,14.95
2023-04-23T03:55:41.526Z,14.90
2023-04-23T03:58:09.709Z,14.89
2023-04-23T04:00:36.495Z,14.89
2023-04-23T04:03:04.470Z,14.81
2023-04-23T04:05:31.575Z,14.84
2023-04-23T04:07:58.686Z,14.87
2023-04-23T04:10:25.419Z,14.82
2023-04-23T04:12:52.514Z,14.86
2023-04-23T04:15:20.776Z,14.84
2023-04-23T04:17:47.906Z,14.85
2023-04-23T04:20:14.721Z,14.83
2023-04-23T04:22:41.883Z,14.79
2023-04-23T04:25:08.879Z,14.76
2023-04-23T04:27:36.021Z,14.80
2023-04-23T04:30:03.104Z,14.86
2023-04-23T04:32:30.173Z,14.82
2023-04-23T04:34:57.209Z,14.84
2023-04-23T04:37:24.801Z,14.87
2023-04-23T04:39:51.537Z,14.84
2023-04-23T04:42:19.178Z,14.86
2023-04-23T04:44:46.116Z,14.84
2023-04-23T04:47:13.605Z,14.88
2023-04-23T04:49:40.454Z,14.87
2023-04-23T04:52:07.581Z,14.92
2023-04-23T04:54:34.317Z,14.96
2023-04-23T04:57:02.410Z,14.98
2023-04-23T04:59:29.370Z,15.01
2023-04-23T05:01:56.773Z,14.98
2023-04-23T05:04:23.718Z,15.01
2023-04-23T05:06:50.934Z,15.06
2023-04-23T05:09:17.705Z,15.07
2023-04-23T05:11:44.796Z,15.05
2023-04-23T05:14:11.726Z,15.08
2023-04-23T05:16:38.785Z,15.16
2023-04-23T05:19:06.451Z,15.19
2023-04-23T05:21:33.541Z,15.34
2023-04-23T05:24:00.389Z,15.33
2023-04-23T05:26:27.536Z,15.33
2023-04-23T05:28:54.268Z,15.40
2023-04-23T05:31:21.662Z,15.44
2023-04-23T05:33:50.570Z,15.47
2023-04-23T05:36:18.471Z,15.54
2023-04-23T05:38:45.293Z,15.60
2023-04-23T05:41:12.356Z,15.65
2023-04-23T05:43:39.128Z,15.68
2023-04-23T05:46:07.709Z,15.75
2023-04-23T05:48:34.815Z,15.83
2023-04-23T05:51:02.034Z,15.89
2023-04-23T05:53:28.941Z,15.97
2023-04-23T05:55:56.106Z,16.02
2023-04-23T05:58:23.583Z,16.09
2023-04-23T06:00:50.654Z,16.14
2023-04-23T06:03:17.643Z,16.23
2023-04-23T06:05:45.302Z,16.30
2023-04-23T06:08:12.118Z,16.32
2023-04-23T06:10:39.179Z,16.41
2023-04-23T06:13:06.091Z,16.46
2023-04-23T06:15:33.159Z,16.49
2023-04-23T06:18:00.057Z,16.53
2023-04-23T06:20:27.302Z,16.59
2023-04-23T06:22:54.107Z,16.70
2023-04-23T06:25:21.236Z,16.73
2023-04-23T06:27:48.010Z,16.77
2023-04-23T06:30:15.160Z,16.85
2023-04-23T06:32:41.922Z,16.95
2023-04-23T06:35:09.576Z,16.99
2023-04-23T06:37:36.434Z,17.06
2023-04-23T06:40:03.779Z,17.13
2023-04-23T06:42:30.840Z,17.20
2023-04-23T06:44:59.586Z,17.30
2023-04-23T06:47:26.466Z,17.35
2023-04-23T06:49:53.592Z,17.40
2023-04-23T06:52:20.383Z,17.49
2023-04-23T06:54:47.523Z,17.59
2023-04-23T06:57:14.291Z,17.64
2023-04-23T06:59:41.337Z,17.74
2023-04-23T07:02:08.166Z,17.84
2023-04-23T07:04:35.704Z,17.87
2023-04-23T07:07:02.713Z,18.00
2023-04-23T07:09:29.956Z,18.00
2023-04-23T07:11:56.779Z,18.06
2023-04-23T07:14:24.880Z,18.13
2023-04-23T07:16:52.198Z,18.23
2023-04-23T07:19:19.339Z,18.27
2023-04-23T07:21:47.295Z,18.34
2023-04-23T07:24:14.441Z,18.42
2023-04-23T07:26:41.343Z,18.47
2023-04-23T07:29:10.572Z,18.57
2023-04-23T07:31:37.628Z,18.63
2023-04-23T07:34:04.992Z,18.70
2023-04-23T07:36:32.055Z,18.80
2023-04-23T07:38:59.201Z,18.84
2023-04-23T07:41:25.992Z,18.90
2023-04-23T07:43:53.001Z,18.96
2023-04-23T07:46:20.243Z,19.03
2023-04-23T07:48:47.436Z,19.11
2023-04-23T07:51:14.223Z,19.17
2023-04-23T07:53:41.494Z,19.24
2023-04-23T07:56:08.310Z,19.34
2023-04-23T07:58:35.604Z,19.39
2023-04-23T08:01:02.646Z,19.45
2023-04-23T08:03:29.989Z,19.57
2023-04-23T08:05:57.556Z,19.63
2023-04-23T08:08:24.677Z,19.68
2023-04-23T08:10:51.451Z,19.78
2023-04-23T08:13:19.324Z,19.89
2023-04-23T08:15:46.099Z,19.92
2023-04-23T08:18:13.286Z,19.98
2023-04-23T08:20:40.053Z,20.05
2023-04-23T08:23:07.207Z,20.11
2023-04-23T08:25:34.682Z,20.18
2023-04-23T08:28:02.419Z,20.25
2023-04-23T08:30:29.250Z,20.29
2023-04-23T08:32:56.684Z,20.34
2023-04-23T08:35:23.840Z,20.47
2023-04-23T08:37:50.906Z,20.57
2023-04-23T08:40:17.683Z,20.64
2023-04-23T08:42:52.245Z,20.68
2023-04-23T08:45:19.083Z,20.74
2023-04-23T08:47:46.238Z,20.79
2023-04-23T08:50:18.349Z,20.90
2023-04-23T08:52:48.146Z,20.96
2023-04-23T08:55:15.956Z,21.02
2023-04-23T08:57:43.071Z,21.07
2023-04-23T09:00:11.032Z,21.19
2023-04-23T09:02:40.598Z,21.23
2023-04-23T09:05:08.528Z,21.26
2023-04-23T09:07:35.954Z,21.33
2023-04-23T09:10:04.041Z,21.43
2023-04-23T09:12:31.218Z,21.47
2023-04-23T09:14:58.413Z,21.54
2023-04-23T09:17:28.090Z,21.65
2023-04-23T09:19:55.295Z,21.69
2023-04-23T09:22:47.441Z,21.78
2023-04-23T09:25:17.524Z,21.87
2023-04-23T09:27:45.884Z,21.93
2023-04-23T09:30:13.046Z,21.99
2023-04-23T09:32:42.225Z,22.18
2023-04-23T09:35:10.611Z,22.22
2023-04-23T09:37:38.857Z,22.33
2023-04-23T09:40:09.542Z,22.29
2023-04-23T09:42:37.076Z,22.50
2023-04-23T09:45:06.265Z,22.56
2023-04-23T09:47:41.019Z,22.66
2023-04-23T09:50:10.483Z,22.76
2023-04-23T09:52:41.207Z,22.82
2023-04-23T09:55:08.616Z,22.84
2023-04-23T09:57:42.519Z,22.90
2023-04-23T10:00:15.291Z,22.99
2023-04-23T10:02:49.839Z,23.08
2023-04-23T10:05:24.844Z,23.14
2023-04-23T10:07:59.743Z,23.25
2023-04-23T10:10:26.723Z,23.30
2023-04-23T10:12:55.899Z,23.37
2023-04-23T10:15:26.910Z,23.47
2023-04-23T10:17:54.701Z,23.54
2023-04-23T10:20:24.578Z,23.55
2023-04-23T10:22:52.594Z,23.61
2023-04-23T10:25:19.431Z,23.73
2023-04-23T10:27:53.756Z,23.81
2023-04-23T10:30:21.034Z,23.86
2023-04-23T10:32:48.829Z,23.95
2023-04-23T10:35:15.694Z,23.93
2023-04-23T10:37:42.859Z,23.94
2023-04-23T10:40:12.886Z,23.99
2023-04-23T10:42:40.728Z,24.07
2023-04-23T10:45:23.164Z,24.13
2023-04-23T10:47:53.572Z,24.20
2023-04-23T10:50:30.796Z,24.27
2023-04-23T10:52:58.715Z,24.23
2023-04-23T10:55:27.453Z,24.31
2023-04-23T10:58:05.873Z,24.40
2023-04-23T11:00:41.955Z,24.44
2023-04-23T11:03:44.569Z,24.52
2023-04-23T11:06:15.621Z,24.59
2023-04-23T11:08:53.825Z,24.76
2023-04-23T11:11:25.774Z,24.86
2023-04-23T11:13:55.804Z,25.02
2023-04-23T11:16:23.600Z,25.14
2023-04-23T11:19:03.081Z,25.16
2023-04-23T11:21:54.765Z,25.17
2023-04-23T11:24:27.200Z,25.22
2023-04-23T11:26:54.582Z,25.29
2023-04-23T11:29:23.801Z,25.31
2023-04-23T11:32:01.528Z,25.37
2023-04-23T11:34:30.917Z,25.39
2023-04-23T11:36:59.177Z,25.46
2023-04-23T11:39:27.031Z,25.45
2023-04-23T11:41:54.877Z,25.48
2023-04-23T11:44:22.135Z,25.53
2023-04-23T11:46:49.861Z,25.62
2023-04-23T11:49:17.146Z,25.67
2023-04-23T11:51:44.612Z,25.71
2023-04-23T11:54:13.665Z,25.71
2023-04-23T11:56:40.866Z,25.74
2023-04-23T11:59:08.148Z,25.79
2023-04-23T12:01:46.816Z,25.79
2023-04-23T12:04:20.088Z,25.84
2023-04-23T12:06:47.923Z,25.86
2023-04-23T12:09:16.038Z,25.87
2023-04-23T12:11:43.495Z,25.86
2023-04-23T12:14:11.447Z,25.94
2023-04-23T12:16:41.466Z,25.94
2023-04-23T12:19:15.346Z,25.96
2023-04-23T12:21:49.601Z,26.01
2023-04-23T12:24:16.743Z,25.99
2023-04-23T12:26:44.511Z,26.06
2023-04-23T12:29:13.371Z,26.08
2023-04-23T12:31:40.365Z,26.12
2023-04-23T12:34:08.793Z,26.10
2023-04-23T12:36:36.710Z,26.13
2023-04-23T12:39:32.097Z,26.16
2023-04-23T12:42:05.537Z,26.26
2023-04-23T12:44:35.530Z,26.33
2023-04-23T12:47:07.684Z,26.38
2023-04-23T12:49:35.906Z,26.32
2023-04-23T12:52:03.742Z,26.34
2023-04-23T12:54:33.126Z,26.40
2023-04-23T12:57:02.026Z,26.42
2023-04-23T12:59:29.405Z,26.48
2023-04-23T13:01:56.256Z,26.52
2023-04-23T13:04:23.326Z,26.54
2023-04-23T13:06:50.837Z,26.55
2023-04-23T13:09:17.978Z,26.58
2023-04-23T13:11:46.194Z,26.58
2023-04-23T13:14:13.264Z,26.61
2023-04-23T13:16:40.113Z,26.65
2023-04-23T13:19:07.346Z,26.65
2023-04-23T13:21:34.102Z,26.61
2023-04-23T13:24:01.186Z,26.58
2023-04-23T13:26:31.968Z,26.55
2023-04-23T13:28:59.774Z,26.53
2023-04-23T13:31:26.917Z,26.52
2023-04-23T13:33:54.044Z,26.52
2023-04-23T13:36:20.798Z,26.49
2023-04-23T13:38:47.984Z,26.46
2023-04-23T13:41:14.756Z,26.48
2023-04-23T13:43:41.851Z,26.47
2023-04-23T13:46:08.787Z,26.44
2023-04-23T13:48:35.883Z,26.40
2023-04-23T13:51:02.760Z,26.39
2023-04-23T13:53:29.853Z,26.39
2023-04-23T13:55:56.775Z,26.33
2023-04-23T13:58:24.063Z,26.29
2023-04-23T14:00:50.963Z,26.29
2023-04-23T14:03:18.184Z,26.27
2023-04-23T14:05:45.091Z,26.28
2023-04-23T14:08:13.088Z,26.27
2023-04-23T14:10:43.020Z,26.24
2023-04-23T14:13:10.820Z,26.21
2023-04-23T14:15:37.710Z,26.19
2023-04-23T14:18:05.778Z,26.16
2023-04-23T14:20:32.604Z,26.14
2023-04-23T14:23:22.935Z,26.15
2023-04-23T14:25:57.238Z,26.14
2023-04-23T14:28:27.424Z,26.13
2023-04-23T14:30:57.504Z,26.11
2023-04-23T14:33:24.633Z,26.13
2023-04-23T14:35:51.507Z,26.15
2023-04-23T14:38:18.708Z,26.14
2023-04-23T14:40:45.479Z,26.14
2023-04-23T14:43:15.773Z,26.10
2023-04-23T14:45:43.099Z,26.11
2023-04-23T14:48:10.513Z,26.07
2023-04-23T14:50:37.340Z,26.06
2023-04-23T14:53:07.151Z,26.07
2023-04-23T14:55:34.297Z,26.07
2023-04-23T14:58:01.629Z,26.08
2023-04-23T15:00:28.491Z,26.09
2023-04-23T15:02:56.438Z,26.10
2023-04-23T15:05:23.483Z,26.09
2023-04-23T15:07:51.884Z,26.04
2023-04-23T15:10:20.338Z,26.03
2023-04-23T15:12:53.445Z,26.05
2023-04-23T15:15:36.820Z,26.05
2023-04-23T15:18:13.783Z,26.01
2023-04-23T15:20:40.954Z,26.01
2023-04-23T15:23:08.142Z,26.01
2023-04-23T15:25:34.924Z,26.01
2023-04-23T15:28:02.054Z,26.02
2023-04-23T15:30:29.050Z,25.97
2023-04-23T15:32:56.301Z,25.96
2023-04-23T15:35:24.004Z,25.95
2023-04-23T15:37:51.300Z,25.96
2023-04-23T15:40:18.256Z,25.94
2023-04-23T15:42:45.470Z,25.91
2023-04-23T15:45:12.336Z,25.92
2023-04-23T15:47:39.500Z,25.93
2023-04-23T15:50:06.757Z,25.89
2023-04-23T15:52:33.835Z,25.89
2023-04-23T15:55:00.956Z,25.88
2023-04-23T15:57:28.158Z,25.85
2023-04-23T15:59:55.774Z,25.85
2023-04-23T16:02:22.971Z,25.82
2023-04-23T16:04:52.692Z,25.81
2023-04-23T16:07:19.846Z,25.82
2023-04-23T16:09:46.653Z,25.79
2023-04-23T16:12:13.908Z,25.76
2023-04-23T16:14:42.638Z,25.72
2023-04-23T16:17:09.818Z,25.69
2023-04-23T16:19:36.686Z,25.67
2023-04-23T16:22:03.874Z,25.66
2023-04-23T16:24:31.092Z,25.63
2023-04-23T16:26:58.182Z,25.61
2023-04-23T16:29:25.059Z,25.55
2023-04-23T16:31:52.212Z,25.51
2023-04-23T16:34:19.076Z,25.51
2023-04-23T16:36:46.819Z,25.47
2023-04-23T16:39:14.654Z,25.46
2023-04-23T16:41:41.725Z,25.44
2023-04-23T16:44:08.584Z,25.41
2023-04-23T16:46:35.728Z,25.39
2023-04-23T16:49:02.739Z,25.35
2023-04-23T16:51:29.969Z,25.31
2023-04-23T16:53:56.951Z,25.28
2023-04-23T16:56:24.186Z,25.22
2023-04-23T16:58:51.042Z,25.18
2023-04-23T17:01:18.254Z,25.19
2023-04-23T17:03:45.844Z,25.12
2023-04-23T17:06:27.088Z,25.09
2023-04-23T17:08:54.508Z,25.07
2023-04-23T17:11:23.118Z,25.05
2023-04-23T17:13:51.044Z,24.98
2023-04-23T17:16:18.416Z,24.95
2023-04-23T17:18:45.600Z,24.90
2023-04-23T17:21:12.830Z,24.87
2023-04-23T17:23:39.676Z,24.84
2023-04-23T17:26:07.066Z,24.83
2023-04-23T17:28:33.837Z,24.76
2023-04-23T17:31:02.658Z,24.75
2023-04-23T17:33:29.884Z,24.69
2023-04-23T17:35:57.200Z,24.67
2023-04-23T17:38:24.781Z,24.63
2023-04-23T17:40:52.458Z,24.59
2023-04-23T17:43:19.366Z,24.56
2023-04-23T17:45:47.580Z,24.56
2023-04-23T17:48:14.767Z,24.54
2023-04-23T17:50:42.218Z,24.49
2023-04-23T17:53:09.030Z,24.46
2023-04-23T17:55:36.220Z,24.43
2023-04-23T17:58:05.780Z,24.39
2023-04-23T18:00:36.654Z,24.33
2023-04-23T18:03:04.009Z,24.27
2023-04-23T18:05:31.424Z,24.18
2023-04-23T18:07:58.337Z,24.18
2023-04-23T18:10:25.550Z,24.13
2023-04-23T18:12:52.510Z,24.04
2023-04-23T18:15:19.728Z,24.04
2023-04-23T18:17:47.535Z,24.00
2023-04-23T18:20:16.203Z,23.92
2023-04-23T18:22:44.335Z,23.89
2023-04-23T18:25:12.675Z,23.84
2023-04-23T18:27:39.635Z,23.78
2023-04-23T18:30:08.318Z,23.75
2023-04-23T18:32:40.083Z,23.62
2023-04-23T18:35:09.102Z,23.62
2023-04-23T18:37:56.008Z,23.56
2023-04-23T18:40:23.291Z,23.45
2023-04-23T18:42:50.423Z,23.38
2023-04-23T18:45:17.535Z,23.32
2023-04-23T18:47:50.024Z,23.31
2023-04-23T18:50:42.162Z,23.24
2023-04-23T18:53:08.949Z,23.19
2023-04-23T18:55:36.846Z,23.15
2023-04-23T18:58:03.671Z,23.13
2023-04-23T19:00:30.823Z,23.10
2023-04-23T19:02:57.988Z,23.06
2023-04-23T19:05:25.280Z,22.97
2023-04-23T19:07:52.331Z,22.90
2023-04-23T19:10:19.476Z,22.86
2023-04-23T19:12:46.352Z,22.83
2023-04-23T19:15:15.034Z,22.75
2023-04-23T19:17:41.962Z,22.68
2023-04-23T19:20:11.226Z,22.61
2023-04-23T19:22:40.572Z,22.53
2023-04-23T19:25:09.318Z,22.53
2023-04-23T19:27:38.908Z,22.49
2023-04-23T19:30:06.981Z,22.47
2023-04-23T19:32:33.874Z,22.41
2023-04-23T19:35:01.120Z,22.37
2023-04-23T19:37:28.280Z,22.26
2023-04-23T19:39:55.380Z,22.19
2023-04-23T19:42:22.218Z,22.17
2023-04-23T19:44:49.754Z,22.17
2023-04-23T19:47:17.185Z,22.06
2023-04-23T19:49:45.009Z,22.06
2023-04-23T19:52:17.242Z,22.04
2023-04-23T19:54:49.067Z,21.98
2023-04-23T19:57:18.406Z,21.95
2023-04-23T19:59:46.065Z,21.83
2023-04-23T20:02:12.997Z,21.78
2023-04-23T20:04:41.365Z,21.74
2023-04-23T20:07:08.504Z,21.70
2023-04-23T20:09:35.613Z,21.65
2023-04-23T20:12:02.870Z,21.57
2023-04-23T20:14:30.024Z,21.62
2023-04-23T20:16:57.368Z,21.58
2023-04-23T20:19:26.187Z,21.44
2023-04-23T20:21:53.499Z,21.43
2023-04-23T20:24:21.498Z,21.36
2023-04-23T20:26:48.620Z,21.34
2023-04-23T20:29:15.355Z,21.25
2023-04-23T20:31:42.538Z,21.25
2023-04-23T20:34:09.522Z,21.22
2023-04-23T20:36:38.736Z,21.17
2023-04-23T20:39:05.593Z,21.15
2023-04-23T20:41:34.531Z,21.01
2023-04-23T20:44:02.064Z,20.99
2023-04-23T20:46:32.600Z,21.03
2023-04-23T20:49:00.894Z,20.89
2023-04-23T20:51:33.211Z,20.87
2023-04-23T20:54:00.113Z,20.77
2023-04-23T20:56:27.961Z,20.82
2023-04-23T20:58:54.785Z,20.73
2023-04-23T21:01:21.910Z,20.67
2023-04-23T21:03:49.392Z,20.63
2023-04-23T21:06:16.557Z,20.63
2023-04-23T21:08:43.312Z,20.58
2023-04-23T21:11:11.345Z,20.55
2023-04-23T21:13:38.208Z,20.50
2023-04-23T21:16:05.495Z,20.42
2023-04-23T21:18:32.363Z,20.35
2023-04-23T21:20:59.819Z,20.37
2023-04-23T21:23:26.656Z,20.30
2023-04-23T21:25:53.704Z,20.24
2023-04-23T21:28:20.543Z,20.26
2023-04-23T21:30:54.483Z,20.15
2023-04-23T21:33:23.566Z,20.13
2023-04-23T21:35:51.430Z,20.05
2023-04-23T21:38:18.506Z,20.00
2023-04-23T21:40:45.839Z,20.07
2023-04-23T21:43:12.792Z,20.01
2023-04-23T21:45:39.827Z,20.01
2023-04-23T21:48:06.657Z,19.92
2023-04-23T21:50:33.867Z,19.94
2023-04-23T21:53:03.110Z,19.91
2023-04-23T21:55:33.611Z,19.86
2023-04-23T21:58:13.958Z,19.83
2023-04-23T22:00:44.767Z,19.79
2023-04-23T22:03:12.626Z,19.75
2023-04-23T22:05:52.480Z,19.73
2023-04-23T22:08:19.551Z,19.71
2023-04-23T22:10:46.717Z,19.66
2023-04-23T22:13:14.344Z,19.63
2023-04-23T22:15:41.412Z,19.62
2023-04-23T22:18:08.708Z,19.57
2023-04-23T22:20:37.618Z,19.50
2023-04-23T22:23:04.500Z,19.52
2023-04-23T22:25:31.513Z,19.47
2023-04-23T22:27:59.009Z,19.41
2023-04-23T22:30:26.246Z,19.42
2023-04-23T22:32:53.084Z,19.38
2023-04-23T22:35:20.292Z,19.39
2023-04-23T22:37:47.705Z,19.33
2023-04-23T22:40:15.814Z,19.27
2023-04-23T22:42:42.955Z,19.23
2023-04-23T22:45:11.299Z,19.20
2023-04-23T22:47:38.761Z,19.22
2023-04-23T22:50:07.849Z,19.19
2023-04-23T22:52:38.038Z,19.15
2023-04-23T22:55:06.382Z,19.12
2023-04-23T22:57:33.308Z,19.09
2023-04-23T23:00:00.777Z,19.05
2023-04-23T23:02:27.879Z,19.00
2023-04-23T23:04:56.005Z,19.04
2023-04-23T23:07:23.358Z,18.98
2023-04-23T23:09:50.770Z,19.00
2023-04-23T23:12:18.152Z,19.01
2023-04-23T23:14:45.603Z,18.99
2023-04-23T23:17:12.664Z,18.92
2023-04-23T23:19:39.854Z,18.96
2023-04-23T23:22:09.905Z,18.94
2023-04-23T23:24:37.669Z,18.90
2023-04-23T23:27:04.929Z,18.85
2023-04-23T23:29:32.817Z,18.87
2023-04-23T23:31:59.956Z,18.82
2023-04-23T23:34:27.166Z,18.84
2023-04-23T23:36:54.180Z,18.79
2023-04-23T23:39:21.727Z,18.79
2023-04-23T23:41:48.622Z,18.78
2023-04-23T23:44:16.595Z,18.78
2023-04-23T23:46:43.542Z,18.75
2023-04-23T23:49:11.150Z,18.71
2023-04-23T23:51:38.622Z,18.73
2023-04-23T23:54:06.281Z,18.71
2023-04-23T23:56:33.128Z,18.67
2023-04-23T23:59:00.149Z,18.67
